KCFV/CFV METAR and TAF weather

Enter ICAO airport designator
Station Type Date Time Source
KCFV METAR 2022/01/27 23:52 UTC NOAA

KCFV 272352Z AUTO 36005KT 10SM CLR 04/M06 A3032 RMK AO2 SLP272 T00391061 10089 20039 53014


Station Type Date Time Source
KCFV Decoded METAR 2022/01/27 23:52 UTC NOAA

COFFEYVILLE MUNICIPAL AIRPORT , KS, United States (KCFV) 37-05N 95-34W 225M
Jan 27, 2022 - 06:52 PM EST / 2022.01.27 2352 UTC
Wind: from the N (360 degrees) at 6 MPH (5 KT):0
Visibility: 10 mile(s):0
Sky conditions: clear
Temperature: 39.0 F (3.9 C)
Dew Point: 21.0 F (-6.1 C)
Relative Humidity: 48%
Pressure (altimeter): 30.32 in. Hg (1026 hPa)
Pressure tendency: 0.04 inches (1.4 hPa) higher than three hours ago
ob: KCFV 272352Z AUTO 36005KT 10SM CLR 04/M06 A3032 RMK AO2 SLP272 T00391061 10089 20039 53014
cycle: 0

Station Type Date Time Source
KCFV TAF UTC NOAA

Error!

Example: see airport list